الصفحة الرئيسية
METAR-TAF:

METAR-TAF

مطار :

ساتو ماري, رومانيا

دائرة عرض: 47-48N, خط طول: 022-53E, ارتفاع: 123 متر

مراقبة الطقس الحالي

تاريخ ووقت الإصدار 40 دقيقة قبل الساعة 17:00UTC
ريح 4 عقدة من الشرق/الجنوب الشرقي
درجة الحرارة 2°درجة مئوية
الرطوبة 87%
ضغط 1012 hPa
الرؤية 10 كم أو أكثر
الغيوم لا تقل 1500 م ولا وجود لمزنة ركامية السحاب الأسود

METAR: LRSM 061700Z 11004KT CAVOK 02/M00 Q1012

زمن: 19:40 (17:40 UTC)

توقعات

تاريخ ووقت الإصدار 3ساعات و 40 دقيقة قبل الساعة 14:00UTC
التوقعات صالحة من06 الساعة 15 UTC إلى 07 الساعة 00 UTC
ريح 8 عقدة من الشرق
الرؤية 10 كم أو أكثر
الغيوم لا تقل 1500 م ولا وجود لمزنة ركامية السحاب الأسود

TAF: LRSM 061400Z 0615/0700 08008KT CAVOK

أرصاد الطقس والتوقعات من أكثر من 4000 مطار (تقارير الطقس للمطار METAR والتنبؤ بالطقس بالمطارTAF).

المحطات المتاحة هي النقط الصفراء والحمراء على الخريطة.

حرك المؤشر فوق النقطة لمعرفة اسم المحطة.

ثم انقر لمعرفة أرصاد وتوقعات الطقس.

لتغيير الخارطة: اضغط على الأزرار الخضراء مع رمز الصليب الأسود للتكبير. على الزر الأخضر مع شرطة للتصغير، أو على الأسهم الخضراء للخرائط المجاورة.


METAR-TAF: